Flight Track Log - Related Links

Times and Time Zones

All times are in EDT time to prevent confusion due to time zone crossing. See the UAL3776 flight status page for this flight to view local times or setup timezone preferences in your user account.

Time Position Orientation Groundspeed Altitude Reporting Facility
EDT Latitude Longitude Course Direction KTS MPH feet Rate Location/Type
Mon 12:12:17 PM 25.8003 -80.2722 50° Northeast 160 184 700  Level Miami Center
Mon 12:13:12 PM 25.8306 -80.2317 50° Northeast 213 245 2,300 2,018 Climbing Miami Center
Mon 12:14:07 PM 25.8672 -80.1817 51° Northeast 231 266 4,400 2,069 Climbing Miami Center
Mon 12:15:08 PM 25.9317 -80.1858 357° North 272 313 6,300 1,553 Climbing Miami Center
Mon 12:15:32 PM 25.9525 -80.1933 342° North 263 303 6,600 1,571 Climbing Miami Center
Mon 12:16:32 PM 26.0161 -80.2392 327° Northwest 283 326 8,500 1,950 Climbing Miami Center
Mon 12:17:32 PM 26.0797 -80.2942 322° Northwest 289 333 10,500 1,600 Climbing Miami Center
Mon 12:18:32 PM 26.1533 -80.3586 322° Northwest 305 351 11,700 1,700 Climbing Miami Center
Mon 12:19:32 PM 26.2269 -80.4233 322° Northwest 331 381 13,900 2,100 Climbing Miami Center
Mon 12:20:32 PM 26.3136 -80.4700 334° Northwest 342 394 15,900 1,900 Climbing Miami Center
Mon 12:21:32 PM 26.4167 -80.5194 337° Northwest 359 413 17,700 1,550 Climbing Miami Center
Mon 12:22:32 PM 26.5033 -80.5594 338° Northwest 374 430 19,000 1,500 Climbing Miami Center
Mon 12:23:32 PM 26.6128 -80.6139 336° Northwest 374 430 20,700 1,450 Climbing Miami Center
Mon 12:24:32 PM 26.7056 -80.6564 338° Northwest 384 442 21,900 1,250 Climbing Miami Center
Mon 12:25:32 PM 26.8192 -80.7067 338° Northwest 390 449 23,200 1,200 Climbing Miami Center
Mon 12:26:32 PM 26.9267 -80.7450 342° North 401 461 24,300 1,100 Climbing Miami Center
Mon 12:27:32 PM 27.0239 -80.7811 342° North 411 473 25,400 1,050 Climbing Miami Center
Mon 12:28:32 PM 27.1378 -80.8197 343° North 411 473 26,400 1,000 Climbing Miami Center
Mon 12:29:32 PM 27.2472 -80.8608 342° North 417 480 27,400 950 Climbing Miami Center
Mon 12:30:32 PM 27.3631 -80.9000 343° North 417 480 28,300 900 Climbing Miami Center
Mon 12:31:32 PM 27.4808 -80.9417 343° North 423 487 29,200 900 Climbing Miami Center
Mon 12:32:32 PM 27.5944 -80.9856 341° North 423 487 30,100 1,300 Climbing Miami Center
Mon 12:33:32 PM 27.7081 -81.0269 342° North 428 493 31,800 1,550 Climbing Miami Center
Mon 12:34:32 PM 27.8175 -81.0664 342° North 416 479 33,200 1,150 Climbing Miami Center
Mon 12:35:32 PM 27.9331 -81.1128 340° North 403 464 34,100 800 Climbing Miami Center
Mon 12:36:32 PM 28.0347 -81.1331 350° North 398 458 34,800 650 Climbing Miami Center
Mon 12:37:32 PM 28.1489 -81.1539 351° North 411 473 35,400 600 Climbing Miami Center
Mon 12:38:32 PM 28.2753 -81.1753 352° North 411 473 36,000 600 Climbing Miami Center
Mon 12:39:32 PM 28.3794 -81.1886 354° North 411 473 36,600 632 Climbing Miami Center
Mon 12:40:07 PM 28.4478 -81.2022 350° North 415 478 37,000 250 Climbing Jacksonville Center
Mon 12:41:08 PM 28.5647 -81.2214 352° North 420 483 37,000  Level Jacksonville Center
Mon 12:42:08 PM 28.6819 -81.2383 353° North 426 490 37,000  Level Jacksonville Center
Mon 12:43:08 PM 28.8053 -81.2600 351° North 432 497 37,000  Level Jacksonville Center
Mon 12:44:07 PM 28.9308 -81.2794 352° North 442 509 37,000  Level Jacksonville Center
Mon 12:45:08 PM 29.0583 -81.2964 353° North 447 514 37,000  Level Jacksonville Center
Mon 12:46:07 PM 29.1878 -81.3061 356° North 458 527 37,000  Level Jacksonville Center
Mon 12:47:08 PM 29.3153 -81.3136 357° North 463 533 37,000  Level Jacksonville Center
Mon 12:48:08 PM 29.4447 -81.3211 357° North 463 533 37,000  Level Jacksonville Center
Mon 12:49:07 PM 29.5847 -81.3308 357° North 463 533 37,000  Level Jacksonville Center
Mon 12:50:08 PM 29.7100 -81.3406 356° North 463 533 37,000  Level Jacksonville Center
Mon 12:51:08 PM 29.8375 -81.3483 357° North 463 533 37,000  Level Jacksonville Center
Mon 12:52:07 PM 29.9669 -81.3533 358° North 458 527 37,000  Level Jacksonville Center
Mon 12:53:07 PM 30.0944 -81.3633 356° North 458 527 37,000  Level Jacksonville Center
Mon 12:54:08 PM 30.2197 -81.3686 358° North 458 527 37,000  Level Jacksonville Center
Mon 12:55:07 PM 30.3514 -81.3786 356° North 458 527 37,000  Level Jacksonville Center
Mon 12:56:07 PM 30.4789 -81.3861 357° North 458 527 37,000  Level Jacksonville Center
Mon 12:57:07 PM 30.6064 -81.3961 356° North 458 527 37,000  Level Jacksonville Center
Mon 12:58:07 PM 30.7317 -81.4014 358° North 458 527 37,000  Level Jacksonville Center
Mon 12:59:07 PM 30.8503 -81.3583 17° North 474 545 37,000  Level Jacksonville Center
Mon 01:00:07 PM 30.9747 -81.3006 22° Northeast 469 540 37,000  Level Jacksonville Center
Mon 01:01:07 PM 31.0994 -81.2403 22° Northeast 480 552 37,000  Level Jacksonville Center
Mon 01:02:07 PM 31.2239 -81.1797 23° Northeast 485 558 37,000  Level Jacksonville Center
Mon 01:03:08 PM 31.3606 -81.1117 23° Northeast 485 558 37,000  Level Jacksonville Center
Mon 01:04:07 PM 31.4808 -81.0508 23° Northeast 479 551 37,000  Level Jacksonville Center
Mon 01:05:08 PM 31.5950 -80.9950 23° Northeast 479 551 37,000  Level Jacksonville Center
Mon 01:06:07 PM 31.7317 -80.9286 22° Northeast 479 551 37,000  Level Jacksonville Center
Mon 01:07:08 PM 31.8603 -80.8672 22° Northeast 479 551 37,000  Level Jacksonville Center
Mon 01:08:07 PM 31.9864 -80.8056 23° Northeast 484 557 37,000  Level Jacksonville Center
Mon 01:09:07 PM 32.1086 -80.7442 23° Northeast 489 563 37,000  Level Jacksonville Center
Mon 01:10:07 PM 32.2328 -80.6822 23° Northeast 481 554 37,000  Level Jacksonville Center
Mon 01:11:07 PM 32.3611 -80.6200 22° Northeast 490 564 37,000  Level Jacksonville Center
Mon 01:12:07 PM 32.4853 -80.5556 24° Northeast 485 558 37,000  Level Jacksonville Center
Mon 01:13:07 PM 32.6094 -80.4931 23° Northeast 485 558 37,000  Level Jacksonville Center
Mon 01:14:07 PM 32.7353 -80.4281 23° Northeast 485 558 37,000  Level Jacksonville Center
Mon 01:15:08 PM 32.8614 -80.3653 23° Northeast 480 552 37,000  Level Jacksonville Center
Mon 01:16:07 PM 32.9897 -80.2997 23° Northeast 485 558 37,000  Level Jacksonville Center
Mon 01:17:07 PM 33.1114 -80.2392 23° Northeast 485 558 37,000  Level Jacksonville Center
Mon 01:18:08 PM 33.2436 -80.1731 23° Northeast 506 582 37,000  Level Jacksonville Center
Mon 01:19:07 PM 33.3653 -80.1097 23° Northeast 496 571 37,000  Level Jacksonville Center
Mon 01:20:07 PM 33.4728 -80.0539 23° Northeast 479 551 37,000  Level Jacksonville Center
Mon 01:21:08 PM 33.5964 -79.9903 23° Northeast 474 545 37,000  Level Jacksonville Center
Mon 01:22:07 PM 33.7203 -79.9261 23° Northeast 474 545 37,000  Level Jacksonville Center
Mon 01:23:07 PM 33.8417 -79.8619 24° Northeast 474 545 37,000  Level Jacksonville Center
Mon 01:24:08 PM 33.9633 -79.8003 23° Northeast 474 545 37,000  Level Jacksonville Center
Mon 01:25:07 PM 34.0869 -79.7358 23° Northeast 474 545 37,000  Level Jacksonville Center
Mon 01:27:03 PM 34.3169 -79.6175 23° Northeast 471 542 37,000  Level Washington Center
Mon 01:28:03 PM 34.4381 -79.5528 24° Northeast 466 536 37,000  Level Washington Center
Mon 01:29:03 PM 34.5569 -79.4881 24° Northeast 466 536 37,000  Level Washington Center
Mon 01:30:03 PM 34.6758 -79.4256 23° Northeast 466 536 37,000  Level Washington Center
Mon 01:31:03 PM 34.7989 -79.3606 23° Northeast 466 536 37,000  Level Washington Center
Mon 01:32:03 PM 34.9197 -79.2978 23° Northeast 466 536 37,000  Level Washington Center
Mon 01:33:03 PM 35.0428 -79.2325 23° Northeast 466 536 37,000 -350 Level Washington Center
Mon 01:34:03 PM 35.1669 -79.2025 11° North 459 528 36,300 -5,000 Descending Washington Center
Mon 01:35:03 PM 35.2919 -79.2031 360° North 441 507 27,000 -1,450 Descending Washington Center
Mon 01:36:03 PM 35.4192 -79.2061 359° North 458 527 33,400 2,550 Climbing Washington Center
Mon 01:37:03 PM 35.5581 -79.1639 14° North 458 527 32,100 -700 Descending Washington Center
Mon 01:38:03 PM 35.6625 -79.0944 28° Northeast 453 521 32,000 -450 Descending Washington Center
Mon 01:39:03 PM 35.7794 -79.0178 28° Northeast 458 527 31,200 -1,000 Descending Washington Center
Mon 01:40:03 PM 35.9006 -78.9383 28° Northeast 481 554 30,000 -1,100 Descending Washington Center
Mon 01:41:03 PM 36.0261 -78.8564 28° Northeast 476 548 29,000 -1,050 Descending Washington Center
Mon 01:42:03 PM 36.1386 -78.7811 28° Northeast 471 542 27,900 -1,000 Descending Washington Center
Mon 01:43:03 PM 36.2533 -78.7033 29° Northeast 466 536 27,000 -450 Descending Washington Center
Mon 01:44:03 PM 36.3658 -78.6281 28° Northeast 461 531 27,000  Level Washington Center
Mon 01:45:03 PM 36.4783 -78.5522 28° Northeast 461 531 27,000  Level Washington Center
Mon 01:46:03 PM 36.5931 -78.4739 29° Northeast 466 536 27,000  Level Washington Center
Mon 01:47:03 PM 36.7075 -78.3953 29° Northeast 466 536 27,000  Level Washington Center
Mon 01:48:03 PM 36.8219 -78.3164 29° Northeast 466 536 27,000 -150 Level Washington Center
Mon 01:49:03 PM 36.9322 -78.2397 29° Northeast 461 531 26,700 -650 Descending Washington Center
Mon 01:50:03 PM 37.0275 -78.1753 28° Northeast 444 511 25,700 -1,050 Descending Washington Center
Mon 01:51:03 PM 37.1375 -78.1008 28° Northeast 423 487 24,600 -1,050 Descending Washington Center
Mon 01:52:03 PM 37.2411 -78.0286 29° Northeast 418 481 23,600 -1,000 Descending Washington Center
Mon 01:53:03 PM 37.3469 -77.9561 29° Northeast 423 487 22,600 -800 Descending Washington Center
Mon 01:54:03 PM 37.4486 -77.8833 30° Northeast 423 487 22,000 -300 Descending Washington Center
Mon 01:55:03 PM 37.5500 -77.8158 28° Northeast 423 487 22,000 -100 Level Washington Center
Mon 01:56:03 PM 37.6553 -77.7533 25° Northeast 413 475 21,800 -1,250 Descending Washington Center
Mon 01:57:03 PM 37.7564 -77.6958 24° Northeast 408 470 19,500 -2,250 Descending Washington Center
Mon 01:58:03 PM 37.8556 -77.6381 25° Northeast 396 456 17,300 -2,400 Descending Washington Center
Mon 01:59:03 PM 37.9525 -77.5800 25° Northeast 391 450 14,700 -2,250 Descending Washington Center
Mon 02:00:03 PM 38.0367 -77.5322 24° Northeast 376 433 12,800 -2,000 Descending Washington Center
Mon 02:01:03 PM 38.1231 -77.4789 26° Northeast 359 413 10,700 -1,400 Descending Washington Center
Mon 02:02:03 PM 38.2008 -77.4361 23° Northeast 325 374 10,000 -350 Descending Washington Center
Mon 02:03:03 PM 38.2744 -77.3903 26° Northeast 301 346 10,000 -250 Level Washington Center
Mon 02:04:03 PM 38.3522 -77.3550 20° North 294 338 9,500 -1,200 Descending Washington Center
Mon 02:05:03 PM 38.4333 -77.3569 359° North 288 331 7,600 -1,600 Descending Washington Center
Mon 02:06:03 PM 38.5208 -77.3642 356° North 294 338 6,300 -1,300 Descending Washington Center
Mon 02:07:03 PM 38.6000 -77.3661 359° North 288 331 5,000 -876 Descending Washington Center
Mon 02:07:32 PM 38.6500 -77.3667 360° North 286 329 5,000 -472 Level Potomac TRACON
Mon 02:08:32 PM 38.7333 -77.3667 360° North 286 329 4,300 -750 Descending Potomac TRACON
Mon 02:09:32 PM 38.8000 -77.3500 11° North 277 319 3,500 -650 Descending Potomac TRACON
Mon 02:10:32 PM 38.8833 -77.3500 360° North 260 299 3,000 -248 Descending Potomac TRACON
Mon 02:11:33 PM 38.9500 -77.3500 360° North 261 300 3,000  Level Potomac TRACON
Mon 02:12:27 PM 39.0167 -77.3500 360° North 241 277 3,000  Level Potomac TRACON
Mon 02:13:28 PM 39.0667 -77.3500 360° North 197 227 3,000 -298 Level Potomac TRACON
Mon 02:14:28 PM 39.1167 -77.3833 333° Northwest 215 247 2,400 -500 Descending Potomac TRACON
Mon 02:15:28 PM 39.1000 -77.4500 252° West 194 223 2,000 -250 Descending Potomac TRACON
Mon 02:16:28 PM 39.0500 -77.4667 195° South 181 208 1,900 -450 Descending Potomac TRACON
Mon 02:17:28 PM 39.0167 -77.4667 180° South 140 161 1,100 -800 Descending Potomac TRACON
Mon 02:19:00 PM 38.9474 -77.4599 191° South  Level Estimated
Mon 02:26:00 PM 38.9474 -77.4599 191° South  Level Estimated
Mon 02:27:00 PM 38.9474 -77.4599 191° South  Level Estimated
Mon 02:28:00 PM 38.9474 -77.4599 191° South  Level Estimated
Mon 02:29:00 PM 38.9474 -77.4599 191° South  Level Estimated

Login

Don't have an account? Register now (free) for customized features, flight alerts, and more!